Forksville, Pennsylvania
Current Conditions -  °F | °C
As of 2:54 AM on Sunday 26 Oct 2014 (Local Time) from KIPT Reporting Station
Few Clouds Few Clouds  
Wind Chill: 58°   Ceiling: Unl
Heat Index: 58°   Visibility: 10mi
Dew Point: 36°   Wind: 24mph
Humidity: 44%   Direction: 290°WNW
Pressure: 29.63"   Gusts: 33mph
Location:  41.49°N, 76.6°W
Report Text: KIPT 260654Z AUTO 29021G29KT 10SM FEW060 14/02 A2963 RMK AO2 PK WND 29029/0653 SLP033 T01440022
Loading
Personal Weather Stations






























Interactive Weather Map
Tropical Storm Tracking
New forecast layout! Learn more

10-Day Weather Forecast

Advertisements
Track Severe Weather on mobile